Time;durP1;ratioP1;P1;durP2;ratioP2;P2;SDS_P1;SDS_P2;PMS_P1;PMS_P2;Temp;Humidity;BMP_temperature;BMP_pressure;BME280_temperature;BME280_humidity;BME280_pressure;Samples;Min_cycle;Max_cycle;Signal;HPM_P1;HPM_P2
2023/07/26 00:01:41;;;;;;;14.20;5.40;;;;;;;30.40;34.72;93485.06;5064328;28;20203;-76
2023/07/26 00:04:07;;;;;;;13.73;5.57;;;;;;;30.55;35.07;93469.09;5068625;28;20208;-76
2023/07/26 00:06:34;;;;;;;14.90;5.50;;;;;;;30.52;34.80;93488.81;5068276;28;20194;-77
2023/07/26 00:09:02;;;;;;;18.67;5.38;;;;;;;30.31;36.31;93490.78;5068940;28;20265;-77
2023/07/26 00:11:29;;;;;;;15.05;5.32;;;;;;;30.20;38.54;93494.16;5071599;28;20206;-78
2023/07/26 00:13:57;;;;;;;14.60;6.38;;;;;;;29.33;41.15;93489.91;5073514;28;20203;-77
2023/07/26 00:16:24;;;;;;;12.65;5.82;;;;;;;29.37;39.02;93484.91;5068766;28;20260;-75
2023/07/26 00:18:51;;;;;;;15.32;6.50;;;;;;;29.05;41.69;93494.13;5068603;28;20231;-76
2023/07/26 00:21:18;;;;;;;16.73;5.38;;;;;;;28.85;38.58;93484.31;5075689;28;20207;-77
2023/07/26 00:23:44;;;;;;;12.07;5.95;;;;;;;28.81;42.01;93486.50;5068540;28;20198;-76
2023/07/26 00:26:11;;;;;;;15.65;5.50;;;;;;;28.56;42.06;93476.53;5068820;28;20199;-77
2023/07/26 00:28:38;;;;;;;17.40;6.28;;;;;;;28.90;41.86;93472.50;5068517;28;20269;-75
2023/07/26 00:31:06;;;;;;;15.35;5.68;;;;;;;28.61;42.64;93483.47;5068074;28;20250;-77
2023/07/26 00:33:33;;;;;;;13.82;5.75;;;;;;;28.36;44.43;93486.69;5068161;28;20219;-77
2023/07/26 00:36:00;;;;;;;12.65;5.93;;;;;;;28.06;44.74;93471.72;5068521;28;20241;-76
2023/07/26 00:38:27;;;;;;;12.80;5.10;;;;;;;28.12;44.51;93479.00;5068317;28;20222;-76
2023/07/26 00:40:53;;;;;;;7.60;4.72;;;;;;;28.33;44.00;93474.44;5068262;28;20676;-75
2023/07/26 00:43:20;;;;;;;10.30;5.60;;;;;;;28.25;44.35;93468.47;5068382;28;20203;-75
2023/07/26 00:45:47;;;;;;;12.35;5.10;;;;;;;28.07;44.76;93474.03;5068208;28;20199;-76
2023/07/26 00:48:16;;;;;;;8.57;5.40;;;;;;;28.13;44.73;93466.63;5068235;28;20275;-76
2023/07/26 00:50:45;;;;;;;13.23;5.13;;;;;;;28.12;44.97;93473.41;5068172;28;20257;-75
2023/07/26 00:53:13;;;;;;;8.93;4.47;;;;;;;28.12;44.89;93467.84;5068490;28;20199;-76
2023/07/26 00:55:40;;;;;;;13.30;5.72;;;;;;;28.12;44.79;93465.06;5075745;28;20203;-76
2023/07/26 00:58:10;;;;;;;10.00;5.95;;;;;;;28.24;44.80;93446.63;5071858;28;20226;-78
2023/07/26 01:00:40;;;;;;;11.63;5.40;;;;;;;28.27;44.31;93459.63;5076497;28;20188;-75
2023/07/26 01:03:08;;;;;;;17.15;6.10;;;;;;;28.15;44.58;93464.13;5071595;28;20229;-75
2023/07/26 01:05:44;;;;;;;13.15;4.75;;;;;;;28.09;44.84;93466.00;5078319;28;20202;-75
2023/07/26 01:08:20;;;;;;;17.67;4.93;;;;;;;27.96;45.44;93462.63;5074149;28;20274;-76
2023/07/26 01:10:53;;;;;;;10.57;4.57;;;;;;;27.80;46.09;93471.31;5071648;28;20194;-77
2023/07/26 01:13:29;;;;;;;10.32;5.68;;;;;;;27.64;46.28;93463.28;5071315;28;20241;-76
2023/07/26 01:15:56;;;;;;;11.57;5.75;;;;;;;27.54;46.87;93471.63;5071756;28;20221;-76
2023/07/26 01:18:23;;;;;;;10.60;4.93;;;;;;;27.63;46.92;93447.84;5084843;28;20227;-76
2023/07/26 01:20:51;;;;;;;14.50;5.85;;;;;;;27.56;46.92;93452.50;5071491;28;20240;-75
2023/07/26 01:23:19;;;;;;;13.52;4.70;;;;;;;27.48;47.57;93456.00;5071606;28;20199;-76
2023/07/26 01:25:46;;;;;;;19.23;6.05;;;;;;;27.46;47.45;93448.16;5084090;28;20483;-77
2023/07/26 01:28:12;;;;;;;8.55;4.47;;;;;;;27.35;48.01;93458.94;5076844;28;20669;-76
2023/07/26 01:30:40;;;;;;;12.02;4.32;;;;;;;27.38;47.52;93455.25;5071323;28;20341;-76
2023/07/26 01:33:08;;;;;;;13.80;6.18;;;;;;;27.36;47.80;93446.59;5070803;28;20257;-76
2023/07/26 01:35:36;;;;;;;12.82;5.68;;;;;;;27.35;47.68;93435.94;5071448;28;20210;-76
2023/07/26 01:38:04;;;;;;;12.75;6.35;;;;;;;27.80;43.81;93432.34;5071038;28;20283;-76
2023/07/26 01:40:34;;;;;;;14.95;6.40;;;;;;;28.18;41.43;93424.22;5071338;28;20209;-77
2023/07/26 01:43:01;;;;;;;11.88;6.03;;;;;;;28.63;40.43;93425.25;5071380;28;20195;-76
2023/07/26 01:45:29;;;;;;;11.75;6.20;;;;;;;28.69;41.45;93434.53;5070675;28;20210;-76
2023/07/26 01:47:56;;;;;;;13.18;6.18;;;;;;;28.93;39.36;93415.81;5071327;28;20597;-76
2023/07/26 01:50:23;;;;;;;17.27;6.25;;;;;;;29.05;38.63;93432.75;5070827;28;20206;-74
2023/07/26 01:52:49;;;;;;;17.70;6.03;;;;;;;28.78;40.67;93420.50;5070909;28;20257;-76
2023/07/26 01:55:16;;;;;;;12.32;5.30;;;;;;;28.38;43.63;93431.25;5077251;28;20210;-76
2023/07/26 01:57:44;;;;;;;16.33;5.88;;;;;;;27.99;45.23;93417.16;5070512;28;20230;-76
2023/07/26 02:00:12;;;;;;;12.52;5.65;;;;;;;27.67;46.26;93428.97;5075450;28;20201;-76
2023/07/26 02:02:39;;;;;;;18.58;6.75;;;;;;;27.46;46.32;93431.47;5070351;28;20195;-77
2023/07/26 02:05:06;;;;;;;12.13;6.15;;;;;;;27.32;46.11;93426.53;5079487;28;20211;-76
2023/07/26 02:07:33;;;;;;;12.13;5.85;;;;;;;27.56;44.98;93424.66;5069567;28;20633;-77
2023/07/26 02:10:00;;;;;;;17.67;6.10;;;;;;;27.57;45.01;93415.09;5070846;28;20570;-76
2023/07/26 02:12:26;;;;;;;11.68;5.78;;;;;;;27.37;45.85;93411.97;5070097;28;21195;-76
2023/07/26 02:14:55;;;;;;;14.68;5.45;;;;;;;27.41;46.15;93407.03;5070590;28;20191;-77
2023/07/26 02:17:21;;;;;;;11.77;4.68;;;;;;;27.41;46.02;93401.47;5070251;28;20206;-76
2023/07/26 02:19:48;;;;;;;12.68;5.38;;;;;;;27.20;46.29;93413.53;5070334;28;20242;-76
2023/07/26 02:22:15;;;;;;;16.80;5.20;;;;;;;26.99;47.22;93414.47;5070807;28;20199;-77
2023/07/26 02:24:42;;;;;;;14.95;5.63;;;;;;;27.05;47.20;93423.75;5070055;28;20514;-77
2023/07/26 02:27:08;;;;;;;13.63;5.72;;;;;;;27.31;45.40;93424.19;5070231;28;20229;-77
2023/07/26 02:29:35;;;;;;;10.57;5.80;;;;;;;27.33;46.34;93421.75;5069653;28;20244;-76
2023/07/26 02:32:04;;;;;;;10.82;5.50;;;;;;;27.28;45.21;93409.22;5069597;28;20234;-77
2023/07/26 02:34:30;;;;;;;17.77;6.20;;;;;;;27.84;44.15;93427.41;5070129;28;20339;-76
2023/07/26 02:36:57;;;;;;;12.32;5.57;;;;;;;27.65;45.46;93420.31;5070132;28;20206;-76
2023/07/26 02:39:24;;;;;;;16.30;6.40;;;;;;;27.38;46.46;93413.53;5069472;28;20231;-76
2023/07/26 02:41:51;;;;;;;14.93;6.47;;;;;;;27.32;46.08;93418.19;5070020;28;20901;-76
2023/07/26 02:44:18;;;;;;;16.38;6.18;;;;;;;27.26;46.19;93417.25;5069908;28;20287;-77
2023/07/26 02:46:44;;;;;;;15.15;5.53;;;;;;;27.13;47.11;93411.06;5069894;28;20222;-76
2023/07/26 02:49:13;;;;;;;10.88;6.18;;;;;;;27.01;47.62;93421.09;5070085;28;20210;-77
2023/07/26 02:51:39;;;;;;;15.98;6.35;;;;;;;26.95;48.26;93420.16;5069426;28;20203;-77
2023/07/26 02:54:06;;;;;;;10.57;5.10;;;;;;;26.90;48.37;93429.09;5066230;28;20240;-76
2023/07/26 02:56:33;;;;;;;13.60;5.15;;;;;;;26.73;48.96;93448.06;5069391;28;20230;-77
2023/07/26 02:58:59;;;;;;;11.30;5.00;;;;;;;26.85;48.35;93422.13;5057194;28;20242;-76
2023/07/26 03:01:26;;;;;;;10.93;4.82;;;;;;;26.66;49.18;93448.34;5074403;28;20195;-77
2023/07/26 03:03:53;;;;;;;13.38;5.80;;;;;;;26.41;50.34;93443.03;5082363;28;20206;-76
2023/07/26 03:06:21;;;;;;;12.88;5.45;;;;;;;26.31;50.90;93466.44;5070938;28;20282;-76
2023/07/26 03:08:48;;;;;;;18.35;7.05;;;;;;;26.03;53.25;93438.53;5069437;28;20195;-76
2023/07/26 03:11:15;;;;;;;13.57;6.45;;;;;;;25.76;54.99;93455.81;5069467;28;20198;-76
2023/07/26 03:13:41;;;;;;;9.85;5.60;;;;;;;25.48;57.55;93462.38;5068741;28;20195;-76
2023/07/26 03:16:08;;;;;;;12.80;6.70;;;;;;;25.32;58.94;93449.47;5069240;28;20199;-78
2023/07/26 03:18:35;;;;;;;17.25;7.20;;;;;;;25.17;60.70;93453.97;5069093;28;20245;-75
2023/07/26 03:21:02;;;;;;;15.98;6.30;;;;;;;25.00;62.00;93455.38;5069063;28;20272;-76
2023/07/26 03:23:30;;;;;;;9.98;4.80;;;;;;;24.92;62.73;93467.88;5068858;28;20249;-75
2023/07/26 03:25:57;;;;;;;15.13;5.32;;;;;;;24.72;63.66;93457.09;5069349;28;20208;-76
2023/07/26 03:28:24;;;;;;;17.05;6.78;;;;;;;24.58;63.96;93458.34;5069312;28;20286;-76
2023/07/26 03:30:51;;;;;;;12.95;5.53;;;;;;;24.53;64.16;93472.72;5068997;28;20199;-76
2023/07/26 03:33:17;;;;;;;13.65;5.55;;;;;;;24.47;64.88;93479.25;5068613;28;20239;-76
2023/07/26 03:35:44;;;;;;;13.88;5.97;;;;;;;24.43;65.30;93462.78;5068698;28;20199;-76
2023/07/26 03:38:11;;;;;;;16.13;7.20;;;;;;;24.41;65.28;93471.53;5069184;28;20253;-76
2023/07/26 03:40:40;;;;;;;14.50;5.10;;;;;;;24.34;65.51;93487.56;5068732;28;20531;-76
2023/07/26 03:43:07;;;;;;;11.90;7.03;;;;;;;24.35;66.08;93489.91;5068548;28;20195;-77
2023/07/26 03:45:34;;;;;;;13.43;6.50;;;;;;;24.33;66.08;93474.94;5068520;28;20201;-76
2023/07/26 03:48:01;;;;;;;13.65;6.13;;;;;;;24.32;66.33;93481.72;5068716;28;20215;-77
2023/07/26 03:50:28;;;;;;;12.90;6.22;;;;;;;24.36;66.62;93469.31;5068535;28;20207;-75
2023/07/26 03:52:54;;;;;;;12.43;6.57;;;;;;;24.63;65.80;93463.28;5068568;28;20206;-75
2023/07/26 03:55:21;;;;;;;14.50;5.88;;;;;;;24.92;64.05;93462.34;5068823;28;20210;-82
2023/07/26 03:57:49;;;;;;;15.27;7.35;;;;;;;25.23;60.37;93468.81;5068927;28;20203;-82
2023/07/26 04:00:16;;;;;;;12.32;6.75;;;;;;;25.55;60.28;93473.22;5073005;28;20219;-82
2023/07/26 04:02:43;;;;;;;15.70;5.80;;;;;;;25.74;61.48;93468.59;5069215;28;20202;-78
2023/07/26 04:05:10;;;;;;;19.23;7.07;;;;;;;25.84;59.95;93472.97;5068420;28;20195;-82
2023/07/26 04:07:37;;;;;;;15.65;5.78;;;;;;;26.41;60.28;93481.91;5068994;28;20202;-83
2023/07/26 04:10:04;;;;;;;12.75;7.30;;;;;;;27.04;53.61;93466.69;5068639;28;20203;-81
2023/07/26 04:12:31;;;;;;;13.73;6.65;;;;;;;27.73;56.11;93471.66;5068547;28;20713;-82
2023/07/26 04:14:59;;;;;;;13.73;6.45;;;;;;;27.96;53.89;93473.75;5068631;28;20195;-81
2023/07/26 04:17:26;;;;;;;20.30;6.88;;;;;;;28.67;52.86;93491.97;5068624;28;20726;-76
2023/07/26 04:19:53;;;;;;;12.80;6.20;;;;;;;29.14;52.55;93491.25;5068198;28;20226;-77
2023/07/26 04:22:20;;;;;;;14.20;7.47;;;;;;;29.05;52.86;93485.75;5068574;28;20603;-77
2023/07/26 04:24:47;;;;;;;16.45;8.00;;;;;;;30.35;50.37;93483.72;5068147;28;20187;-77
2023/07/26 04:27:13;;;;;;;11.15;6.32;;;;;;;30.70;48.63;93466.25;5069049;28;20222;-77
2023/07/26 04:29:42;;;;;;;13.60;6.85;;;;;;;30.54;49.12;93461.19;5068365;28;20217;-77
2023/07/26 04:32:11;;;;;;;16.35;7.18;;;;;;;32.23;46.08;93455.19;5072332;28;20316;-78
2023/07/26 04:34:37;;;;;;;17.02;7.70;;;;;;;32.88;43.69;93472.28;5072417;28;20215;-78
2023/07/26 04:37:05;;;;;;;16.30;7.07;;;;;;;33.67;42.81;93468.63;5077200;28;20705;-78
2023/07/26 04:39:31;;;;;;;17.90;6.70;;;;;;;33.54;42.53;93465.50;5077417;28;20332;-78
2023/07/26 04:41:58;;;;;;;17.00;6.88;;;;;;;33.42;42.45;93452.69;5076824;28;20206;-78
2023/07/26 04:44:25;;;;;;;15.15;6.95;;;;;;;34.48;40.50;93456.56;5075222;28;20205;-77
2023/07/26 04:46:52;;;;;;;14.32;7.50;;;;;;;34.33;40.63;93472.91;5072010;28;20252;-77
2023/07/26 04:49:20;;;;;;;12.13;7.18;;;;;;;35.10;39.15;93443.22;5072458;28;20206;-77
2023/07/26 04:51:46;;;;;;;17.70;7.30;;;;;;;32.89;42.78;93439.38;5072010;28;20589;-77
2023/07/26 04:54:13;;;;;;;14.88;7.57;;;;;;;32.03;44.93;93444.00;5072021;28;20203;-77
2023/07/26 04:56:40;;;;;;;12.43;7.10;;;;;;;32.22;44.66;93444.47;5072385;28;20222;-77
2023/07/26 04:59:07;;;;;;;10.38;6.75;;;;;;;34.17;41.44;93445.50;5083762;28;20276;-77
2023/07/26 05:01:34;;;;;;;15.23;6.72;;;;;;;34.73;40.43;93418.16;5078541;28;20738;-77
2023/07/26 05:04:01;;;;;;;19.25;7.25;;;;;;;36.20;37.47;93429.19;5071714;28;20241;-77
2023/07/26 05:06:30;;;;;;;15.60;7.13;;;;;;;37.91;35.07;93446.28;5072043;28;20195;-77
2023/07/26 05:08:57;;;;;;;15.93;7.18;;;;;;;37.38;34.83;93445.13;5072252;28;20198;-77
2023/07/26 05:11:24;;;;;;;13.43;7.35;;;;;;;34.77;39.58;93454.53;5072124;28;20226;-75
2023/07/26 05:13:51;;;;;;;13.65;7.38;;;;;;;32.05;45.14;93452.69;5071857;28;20195;-76
2023/07/26 05:16:18;;;;;;;16.08;7.60;;;;;;;32.96;44.12;93453.72;5071754;28;20663;-77
2023/07/26 05:18:44;;;;;;;17.67;7.07;;;;;;;34.29;41.55;93452.72;5071386;28;20225;-77
2023/07/26 05:21:11;;;;;;;12.82;7.18;;;;;;;33.66;42.87;93443.84;5078748;28;20654;-77
2023/07/26 05:23:39;;;;;;;17.00;7.05;;;;;;;32.87;44.68;93431.47;5081229;28;20210;-76
2023/07/26 05:26:06;;;;;;;16.85;7.28;;;;;;;33.00;45.28;93445.84;5075162;28;20193;-76
2023/07/26 05:28:33;;;;;;;17.55;8.00;;;;;;;32.93;45.17;93423.88;5061681;28;20198;-75
2023/07/26 05:31:00;;;;;;;20.00;7.50;;;;;;;33.71;42.86;93432.63;5071998;28;20199;-75
2023/07/26 05:33:26;;;;;;;15.93;7.35;;;;;;;34.56;41.28;93439.94;5071569;28;20195;-78
2023/07/26 05:35:53;;;;;;;16.85;8.05;;;;;;;36.59;38.05;93448.66;5075611;28;20297;-78
2023/07/26 05:38:20;;;;;;;16.52;7.35;;;;;;;36.35;37.67;93465.53;5073391;28;20260;-78
2023/07/26 05:40:48;;;;;;;15.75;7.07;;;;;;;34.83;40.52;93446.88;5083185;28;20219;-78
2023/07/26 05:43:17;;;;;;;18.67;7.47;;;;;;;33.64;42.66;93447.16;5069971;28;20206;-74
2023/07/26 05:45:44;;;;;;;17.98;7.85;;;;;;;32.94;43.75;93442.22;5066346;28;20261;-76
2023/07/26 05:48:10;;;;;;;14.02;7.28;;;;;;;33.46;43.62;93447.63;5065078;28;20272;-75
2023/07/26 05:50:37;;;;;;;13.88;7.43;;;;;;;32.57;44.20;93424.59;5084603;28;20199;-78
2023/07/26 05:53:04;;;;;;;14.68;7.38;;;;;;;31.69;46.40;93449.28;5070953;28;20206;-78
2023/07/26 05:55:31;;;;;;;18.50;7.82;;;;;;;32.34;44.55;93460.91;5071164;28;20312;-78
2023/07/26 05:57:59;;;;;;;20.23;7.88;;;;;;;32.59;44.73;93450.88;5070837;28;20650;-77
2023/07/26 06:00:26;;;;;;;19.45;7.95;;;;;;;31.60;45.68;93440.22;5074981;28;20701;-74
2023/07/26 06:02:52;;;;;;;14.27;7.68;;;;;;;29.91;49.48;93452.22;5070713;28;20305;-78
2023/07/26 06:05:19;;;;;;;17.38;7.13;;;;;;;29.37;51.19;93448.66;5070380;28;20203;-78
2023/07/26 06:07:48;;;;;;;13.38;7.25;;;;;;;29.39;50.88;93446.16;5069930;28;20280;-76
2023/07/26 06:10:15;;;;;;;12.57;8.10;;;;;;;29.19;50.81;93454.34;5067128;28;20202;-77
2023/07/26 06:12:41;;;;;;;19.35;7.03;;;;;;;29.35;50.36;93456.72;5068680;28;20187;-77
2023/07/26 06:15:11;;;;;;;15.82;7.63;;;;;;;29.16;50.52;93449.72;5070574;28;20336;-76
2023/07/26 06:17:38;;;;;;;17.13;7.35;;;;;;;29.26;50.36;93449.16;5068952;28;20538;-77
2023/07/26 06:20:07;;;;;;;14.25;7.05;;;;;;;30.84;46.95;93450.69;5068854;28;20329;-77
2023/07/26 06:22:33;;;;;;;13.30;7.22;;;;;;;32.41;44.13;93440.81;5070152;28;20203;-76
2023/07/26 06:25:00;;;;;;;22.55;7.50;;;;;;;32.49;44.00;93421.50;5069779;28;20191;-75
2023/07/26 06:27:29;;;;;;;17.85;7.82;;;;;;;34.15;40.45;93428.41;5069725;28;20191;-76
2023/07/26 06:29:56;;;;;;;16.35;6.95;;;;;;;34.99;38.33;93420.72;5067992;28;20609;-74
2023/07/26 06:32:24;;;;;;;15.68;7.72;;;;;;;35.01;37.79;93420.97;5070461;28;20778;-75
2023/07/26 06:34:50;;;;;;;17.20;7.57;;;;;;;33.80;38.95;93415.56;5070701;28;20203;-78
2023/07/26 06:37:17;;;;;;;20.35;6.95;;;;;;;34.56;38.86;93415.41;5070063;28;20226;-78
2023/07/26 06:39:44;;;;;;;22.55;10.07;;;;;;;35.38;36.79;93422.69;5070570;28;20571;-76
2023/07/26 06:42:11;;;;;;;19.15;7.18;;;;;;;37.29;33.77;93432.88;5069767;28;20210;-75
2023/07/26 06:44:39;;;;;;;16.08;7.28;;;;;;;38.56;32.08;93440.22;5069026;28;20214;-76
2023/07/26 06:47:06;;;;;;;15.95;7.80;;;;;;;37.76;31.53;93426.94;5067771;28;20735;-74
2023/07/26 06:49:34;;;;;;;16.65;7.30;;;;;;;37.72;29.47;93426.50;5069333;28;20194;-75
2023/07/26 06:52:01;;;;;;;20.10;7.57;;;;;;;38.87;28.74;93426.56;5068929;28;20253;-76
2023/07/26 06:54:28;;;;;;;15.25;7.47;;;;;;;38.42;30.55;93438.59;5068986;28;20206;-78
2023/07/26 06:56:55;;;;;;;23.42;7.88;;;;;;;38.09;31.28;93441.97;5069809;28;20272;-76
2023/07/26 06:59:22;;;;;;;16.55;7.20;;;;;;;38.68;30.02;93441.56;5069059;28;20716;-75
2023/07/26 07:01:49;;;;;;;21.55;6.97;;;;;;;39.14;27.67;93435.91;5070509;28;20317;-77
2023/07/26 07:04:15;;;;;;;16.52;7.07;;;;;;;38.53;29.89;93438.47;5069637;28;20207;-74
2023/07/26 07:06:44;;;;;;;24.75;6.32;;;;;;;37.84;26.96;93429.94;5069407;28;20203;-74
2023/07/26 07:09:12;;;;;;;20.83;6.70;;;;;;;37.94;24.73;93426.19;5068950;28;20210;-75
2023/07/26 07:11:38;;;;;;;18.65;6.07;;;;;;;38.39;24.06;93412.16;5069130;28;20201;-76
2023/07/26 07:14:05;;;;;;;16.48;5.57;;;;;;;39.93;22.15;93414.00;5069158;28;20205;-76
2023/07/26 07:16:35;;;;;;;18.70;5.82;;;;;;;41.07;21.98;93420.09;5067902;28;20572;-78
2023/07/26 07:19:02;;;;;;;17.13;5.72;;;;;;;40.48;22.11;93405.53;5067226;28;20195;-75
2023/07/26 07:21:28;;;;;;;16.55;5.40;;;;;;;40.59;21.63;93405.28;5068058;28;20195;-76
2023/07/26 07:23:57;;;;;;;18.73;6.55;;;;;;;40.87;21.96;93415.94;5068795;28;20195;-77
2023/07/26 07:26:24;;;;;;;18.77;5.93;;;;;;;40.25;22.67;93427.22;5068199;28;20191;-77
2023/07/26 07:28:50;;;;;;;20.15;5.57;;;;;;;40.37;22.38;93422.84;5067411;28;20195;-76
2023/07/26 07:31:17;;;;;;;15.00;6.13;;;;;;;40.33;22.87;93416.72;5067878;28;21034;-76
2023/07/26 07:33:44;;;;;;;20.08;5.90;;;;;;;40.38;21.91;93418.69;5068421;28;20202;-77
2023/07/26 07:36:15;;;;;;;19.77;5.88;;;;;;;39.54;22.20;93422.53;5069184;28;20195;-76
2023/07/26 07:38:44;;;;;;;17.60;6.20;;;;;;;40.68;21.79;93427.50;5068485;28;20191;-76
2023/07/26 07:41:13;;;;;;;19.55;5.65;;;;;;;39.31;22.72;93428.63;5066591;28;20234;-76
2023/07/26 07:43:39;;;;;;;14.27;5.20;;;;;;;38.40;24.00;93449.72;5067578;28;20268;-76
2023/07/26 07:46:07;;;;;;;17.10;5.72;;;;;;;39.10;23.23;93453.22;5068456;28;20225;-75
2023/07/26 07:48:34;;;;;;;18.95;5.25;;;;;;;38.52;22.32;93431.25;5068082;28;20206;-76
2023/07/26 07:51:01;;;;;;;18.65;5.30;;;;;;;38.10;22.92;93415.19;5065579;28;20187;-76
2023/07/26 07:53:28;;;;;;;24.40;6.35;;;;;;;39.27;22.49;93416.84;5071092;28;20253;-77
2023/07/26 07:55:54;;;;;;;19.15;6.20;;;;;;;38.56;24.30;93428.88;5068050;28;20246;-76
2023/07/26 07:58:22;;;;;;;16.65;6.30;;;;;;;37.57;25.05;93426.13;5067708;28;20206;-76
2023/07/26 08:00:49;;;;;;;16.83;5.65;;;;;;;36.87;25.48;93439.97;5068536;28;20603;-74
2023/07/26 08:03:16;;;;;;;15.07;5.95;;;;;;;37.15;26.45;93425.56;5067729;28;20199;-76
2023/07/26 08:05:43;;;;;;;15.88;5.82;;;;;;;37.12;25.96;93420.97;5068121;28;20199;-76
2023/07/26 08:08:10;;;;;;;14.60;6.07;;;;;;;36.97;26.21;93426.25;5068835;28;20262;-72
2023/07/26 08:10:40;;;;;;;22.90;6.43;;;;;;;35.98;27.41;93432.91;5068936;28;20191;-76
2023/07/26 08:13:07;;;;;;;17.83;5.55;;;;;;;36.34;26.16;93430.13;5069450;28;20241;-75
2023/07/26 08:15:38;;;;;;;14.73;5.72;;;;;;;37.53;25.43;93431.31;5068150;28;20203;-76
2023/07/26 08:18:05;;;;;;;14.05;4.70;;;;;;;35.81;25.97;93428.66;5056550;28;20249;-74
2023/07/26 08:20:33;;;;;;;15.43;5.63;;;;;;;36.22;26.59;93434.31;5068075;28;20554;-76
2023/07/26 08:23:00;;;;;;;19.05;5.40;;;;;;;36.36;26.10;93432.44;5068368;28;20296;-77
2023/07/26 08:25:27;;;;;;;15.35;5.28;;;;;;;36.18;25.97;93419.72;5067918;28;20195;-76
2023/07/26 08:27:54;;;;;;;16.70;5.53;;;;;;;35.59;26.67;93416.19;5065207;28;20203;-76
2023/07/26 08:30:20;;;;;;;18.33;5.28;;;;;;;36.17;25.65;93421.00;5066705;28;20199;-73
2023/07/26 08:32:48;;;;;;;20.38;5.00;;;;;;;36.25;25.71;93416.34;5072029;28;20234;-75
2023/07/26 08:35:15;;;;;;;17.13;5.00;;;;;;;36.46;25.18;93409.00;5075728;28;20499;-74
2023/07/26 08:37:42;;;;;;;19.92;5.32;;;;;;;36.34;25.00;93409.63;5066939;28;20203;-77
2023/07/26 08:40:10;;;;;;;20.48;5.18;;;;;;;36.78;24.71;93411.28;5065229;28;20231;-76
2023/07/26 08:42:37;;;;;;;16.52;5.40;;;;;;;35.97;24.59;93411.63;5065786;28;20211;-76
2023/07/26 08:45:06;;;;;;;17.25;5.50;;;;;;;36.59;24.95;93408.38;5061709;28;20206;-76
2023/07/26 08:47:35;;;;;;;13.95;5.05;;;;;;;36.46;24.75;93411.81;5065529;28;20297;-74
2023/07/26 08:50:04;;;;;;;18.67;4.93;;;;;;;35.67;24.85;93407.94;5063709;28;20282;-75
2023/07/26 08:52:37;;;;;;;16.45;4.95;;;;;;;35.69;25.62;93408.16;5066107;28;20304;-77
2023/07/26 08:55:06;;;;;;;16.20;4.95;;;;;;;36.31;25.43;93411.44;5066271;28;20231;-76
2023/07/26 08:57:32;;;;;;;23.50;5.13;;;;;;;35.94;24.83;93411.94;5066846;28;20207;-75
2023/07/26 08:59:59;;;;;;;16.60;4.70;;;;;;;36.27;24.88;93408.13;5069702;28;20280;-76
2023/07/26 09:02:27;;;;;;;9.55;4.30;;;;;;;35.94;24.80;93400.66;5062229;28;20217;-75
2023/07/26 09:04:54;;;;;;;23.98;5.10;;;;;;;35.95;24.09;93408.56;5066964;28;20195;-77
2023/07/26 09:07:22;;;;;;;17.02;6.35;;;;;;;36.19;24.09;93401.50;5064607;28;20203;-78
2023/07/26 09:09:49;;;;;;;14.20;4.30;;;;;;;35.66;24.37;93403.59;5066421;28;20199;-77
2023/07/26 09:12:25;;;;;;;14.85;4.60;;;;;;;35.40;25.06;93409.59;5066746;28;20206;-72
2023/07/26 09:14:55;;;;;;;14.68;4.22;;;;;;;35.22;25.18;93421.44;5067097;28;20195;-74
2023/07/26 09:17:22;;;;;;;15.57;4.32;;;;;;;35.37;24.52;93409.88;5069351;28;20722;-75
2023/07/26 09:19:51;;;;;;;15.57;4.72;;;;;;;35.21;24.84;93426.28;5071127;28;20198;-74
2023/07/26 09:22:18;;;;;;;9.57;3.97;;;;;;;35.27;25.02;93429.09;5068022;28;20683;-74
2023/07/26 09:24:50;;;;;;;9.23;4.05;;;;;;;35.43;24.95;93425.47;5070129;28;20202;-76
2023/07/26 09:27:19;;;;;;;19.77;4.47;;;;;;;35.69;25.12;93419.44;5070530;28;20195;-76
2023/07/26 09:29:56;;;;;;;9.32;3.88;;;;;;;35.85;24.23;93432.72;5069853;28;20210;-76
2023/07/26 09:32:29;;;;;;;12.90;5.00;;;;;;;35.47;24.73;93425.97;5070359;28;20266;-76
2023/07/26 09:34:59;;;;;;;14.05;4.72;;;;;;;35.46;25.05;93434.94;5058158;28;20222;-78
2023/07/26 09:37:27;;;;;;;21.65;5.28;;;;;;;35.96;25.11;93443.94;5071458;28;20253;-77
2023/07/26 09:39:56;;;;;;;12.95;5.10;;;;;;;36.22;25.15;93439.94;5089721;28;20244;-77
2023/07/26 09:42:23;;;;;;;23.00;4.82;;;;;;;36.00;25.51;93445.72;5072838;28;20286;-75
2023/07/26 09:44:57;;;;;;;14.82;4.90;;;;;;;36.13;26.03;93434.59;5069716;28;20970;-78
2023/07/26 09:47:35;;;;;;;15.95;4.80;;;;;;;35.87;27.31;93446.28;5070344;28;20209;-75
2023/07/26 09:50:02;;;;;;;16.27;5.18;;;;;;;36.08;25.38;93443.88;5062468;28;20259;-75
2023/07/26 09:52:30;;;;;;;15.85;4.53;;;;;;;36.30;25.83;93432.47;5069814;28;20639;-73
2023/07/26 09:55:00;;;;;;;22.65;5.80;;;;;;;36.38;25.90;93439.06;5069935;28;20327;-75
2023/07/26 09:57:29;;;;;;;17.85;5.93;;;;;;;36.29;26.10;93442.22;5069915;28;20291;-76
2023/07/26 10:00:00;;;;;;;18.33;5.30;;;;;;;36.21;26.14;93430.72;5069649;28;20203;-74
2023/07/26 10:02:29;;;;;;;18.30;4.82;;;;;;;36.76;26.41;93430.84;5061893;28;20289;-75
2023/07/26 10:04:58;;;;;;;12.25;4.70;;;;;;;37.04;26.21;93436.97;5068991;28;20263;-77
2023/07/26 10:07:27;;;;;;;17.13;4.97;;;;;;;37.30;26.35;93434.41;5069155;28;20625;-77
2023/07/26 10:09:56;;;;;;;15.27;5.45;;;;;;;37.43;24.88;93427.34;5070301;28;20206;-77
2023/07/26 10:12:26;;;;;;;13.18;4.35;;;;;;;36.22;25.74;93414.56;5069682;28;20217;-75
2023/07/26 10:14:56;;;;;;;15.32;4.90;;;;;;;36.53;26.29;93416.88;5069342;28;20187;-73
2023/07/26 10:17:26;;;;;;;15.43;5.18;;;;;;;36.25;27.42;93405.81;5070386;28;20249;-74
2023/07/26 10:19:54;;;;;;;12.73;5.43;;;;;;;36.19;26.85;93409.97;5069969;28;20272;-76
2023/07/26 10:22:21;;;;;;;13.07;4.80;;;;;;;36.68;26.22;93417.25;5069729;28;20230;-76
2023/07/26 10:24:48;;;;;;;13.80;5.13;;;;;;;36.53;26.62;93416.13;5069711;28;20226;-78
2023/07/26 10:27:16;;;;;;;13.25;5.00;;;;;;;36.87;25.83;93410.97;5070417;28;20202;-76
2023/07/26 10:29:45;;;;;;;15.85;5.00;;;;;;;35.93;26.05;93411.16;5069593;28;20203;-75
2023/07/26 10:32:12;;;;;;;16.48;4.60;;;;;;;35.28;26.99;93414.50;5069603;28;20296;-75
2023/07/26 10:34:39;;;;;;;13.77;4.63;;;;;;;35.18;26.69;93416.06;5069875;28;20202;-76
2023/07/26 10:37:15;;;;;;;15.88;4.95;;;;;;;35.57;26.93;93412.34;5051582;28;20264;-76
2023/07/26 10:39:42;;;;;;;13.85;4.80;;;;;;;35.92;26.08;93412.44;5070415;28;20190;-74
2023/07/26 10:42:22;;;;;;;17.00;4.90;;;;;;;35.30;25.81;93387.88;5070456;28;20234;-76
2023/07/26 10:44:53;;;;;;;14.27;4.38;;;;;;;35.30;26.11;93401.97;5069749;28;20259;-76
2023/07/26 10:47:20;;;;;;;14.07;4.45;;;;;;;35.67;26.51;93405.13;5070138;28;20272;-77
2023/07/26 10:49:47;;;;;;;15.38;4.47;;;;;;;35.65;25.92;93395.66;5069905;28;20685;-74
2023/07/26 10:52:15;;;;;;;19.48;4.22;;;;;;;35.65;25.41;93385.16;5070367;28;20290;-77
2023/07/26 10:54:43;;;;;;;14.02;4.40;;;;;;;35.37;25.40;93370.44;5056858;28;20229;-77
2023/07/26 10:57:26;;;;;;;11.60;4.88;;;;;;;35.25;26.15;93390.19;5070172;28;20199;-75
2023/07/26 10:59:56;;;;;;;14.48;4.35;;;;;;;34.89;26.79;93382.88;5073390;28;20191;-74
2023/07/26 11:02:38;;;;;;;13.27;5.07;;;;;;;35.25;26.45;93362.03;5072995;28;20353;-76
2023/07/26 11:05:07;;;;;;;8.85;3.80;;;;;;;35.59;26.40;93367.50;5069344;28;20210;-74
2023/07/26 11:07:55;;;;;;;15.63;4.68;;;;;;;35.41;26.96;93354.78;5069139;28;20207;-74
2023/07/26 11:10:24;;;;;;;13.25;4.82;;;;;;;35.75;26.60;93377.94;5069946;28;20203;-75
2023/07/26 11:12:52;;;;;;;12.57;4.72;;;;;;;36.04;26.56;93378.53;5069782;28;20199;-76
2023/07/26 11:15:31;;;;;;;14.30;4.55;;;;;;;35.40;26.10;93369.41;5069924;28;20755;-75
2023/07/26 11:17:58;;;;;;;9.93;4.18;;;;;;;35.24;27.34;93383.00;5069713;28;20199;-74
2023/07/26 11:20:25;;;;;;;12.43;4.45;;;;;;;35.49;26.83;93371.91;5069738;28;20203;-77
2023/07/26 11:22:52;;;;;;;13.05;4.82;;;;;;;35.64;26.83;93366.72;5069674;28;20207;-75
2023/07/26 11:25:19;;;;;;;11.35;4.22;;;;;;;35.25;27.01;93362.03;5069481;28;20655;-72
2023/07/26 11:27:47;;;;;;;12.73;4.22;;;;;;;34.63;28.42;93371.13;5069453;28;20201;-73
2023/07/26 11:30:15;;;;;;;11.57;4.30;;;;;;;34.78;27.97;93361.16;5069634;28;20294;-72